Time;durP1;ratioP1;P1;durP2;ratioP2;P2;SDS_P1;SDS_P2;PMS_P1;PMS_P2;Temp;Humidity;BMP_temperature;BMP_pressure;BME280_temperature;BME280_humidity;BME280_pressure;Samples;Min_cycle;Max_cycle;Signal;HPM_P1;HPM_P2
2024/03/09 00:00:23;;;;;;;13.35;8.00;;;;;;;;;;5027061;28;20014;-54
2024/03/09 00:02:50;;;;;;;14.55;10.80;;;;;;;;;;5027019;28;20033;-54
2024/03/09 00:05:16;;;;;;;14.02;8.75;;;;;;;;;;5027824;28;20069;-58
2024/03/09 00:07:43;;;;;;;14.85;9.05;;;;;;;;;;5027766;28;20028;-55
2024/03/09 00:10:11;;;;;;;13.10;7.70;;;;;;;;;;5027638;28;20025;-53
2024/03/09 00:12:37;;;;;;;;;;;;;;;;;;5026864;28;20108;-58
2024/03/09 00:15:03;;;;;;;13.57;8.43;;;;;;;;;;5027722;28;20418;-56
2024/03/09 00:17:30;;;;;;;13.77;8.30;;;;;;;;;;5027622;28;20095;-56
2024/03/09 00:19:58;;;;;;;14.95;9.00;;;;;;;;;;5027218;28;20029;-55
2024/03/09 00:22:25;;;;;;;13.25;7.80;;;;;;;;;;5026806;28;20026;-53
2024/03/09 00:24:52;;;;;;;13.43;8.10;;;;;;;;;;5026919;28;20049;-52
2024/03/09 00:27:23;;;;;;;13.15;7.90;;;;;;;;;;5027285;28;20025;-53
2024/03/09 00:29:49;;;;;;;12.90;7.53;;;;;;;;;;5026761;28;20041;-57
2024/03/09 00:32:15;;;;;;;12.60;7.32;;;;;;;;;;5026280;28;20033;-55
2024/03/09 00:34:42;;;;;;;12.63;7.38;;;;;;;;;;5025877;28;20594;-57
2024/03/09 00:37:08;;;;;;;14.10;8.47;;;;;;;;;;5026752;28;20496;-55
2024/03/09 00:39:37;;;;;;;12.38;7.18;;;;;;;;;;5025678;28;20871;-56
2024/03/09 00:42:05;;;;;;;12.25;7.50;;;;;;;;;;5026560;28;20113;-56
2024/03/09 00:44:31;;;;;;;12.02;7.07;;;;;;;;;;5029773;28;20555;-54
2024/03/09 00:47:00;;;;;;;11.90;6.95;;;;;;;;;;5045426;28;20106;-54
2024/03/09 00:49:26;;;;;;;13.57;8.48;;;;;;;;;;5046103;28;20032;-56
2024/03/09 00:51:52;;;;;;;14.18;8.80;;;;;;;;;;5037147;28;20068;-54
2024/03/09 00:54:25;;;;;;;12.32;7.30;;;;;;;;;;5017891;28;20037;-57
2024/03/09 00:56:51;;;;;;;12.07;7.03;;;;;;;;;;5008258;28;20479;-56
2024/03/09 00:59:17;;;;;;;12.68;7.63;;;;;;;;;;5008774;28;20045;-58
2024/03/09 01:01:43;;;;;;;16.27;13.13;;;;;;;;;;5008962;28;20510;-56
2024/03/09 01:04:09;;;;;;;12.38;7.20;;;;;;;;;;5009578;28;20021;-54
2024/03/09 01:06:37;;;;;;;12.70;7.40;;;;;;;;;;5009965;28;20488;-57
2024/03/09 01:09:03;;;;;;;18.13;16.33;;;;;;;;;;5009780;28;20021;-57
2024/03/09 01:11:30;;;;;;;12.20;7.10;;;;;;;;;;5009807;28;20179;-56
2024/03/09 01:13:56;;;;;;;12.48;7.53;;;;;;;;;;5009740;28;20026;-55
2024/03/09 01:16:22;;;;;;;11.95;6.95;;;;;;;;;;5010448;28;20028;-55
2024/03/09 01:18:49;;;;;;;11.98;6.97;;;;;;;;;;5010112;28;20030;-57
2024/03/09 01:21:15;;;;;;;13.70;7.93;;;;;;;;;;5009795;28;20447;-56
2024/03/09 01:23:41;;;;;;;12.98;7.72;;;;;;;;;;5008718;28;20409;-58
2024/03/09 01:26:09;;;;;;;12.07;7.00;;;;;;;;;;5010154;28;20391;-56
2024/03/09 01:28:36;;;;;;;11.90;6.95;;;;;;;;;;5010014;28;20444;-58
2024/03/09 01:31:02;;;;;;;11.98;7.00;;;;;;;;;;5009732;28;20432;-53
2024/03/09 01:33:28;;;;;;;12.32;7.13;;;;;;;;;;5009547;28;20049;-56
2024/03/09 01:35:54;;;;;;;13.60;9.07;;;;;;;;;;5009936;28;20108;-54
2024/03/09 01:38:21;;;;;;;12.55;7.22;;;;;;;;;;5009887;28;20034;-57
2024/03/09 01:40:47;;;;;;;16.42;12.20;;;;;;;;;;5009807;28;20562;-58
2024/03/09 01:43:16;;;;;;;12.38;7.18;;;;;;;;;;5008024;28;20029;-56
2024/03/09 01:45:47;;;;;;;12.45;7.20;;;;;;;;;;5009927;28;20074;-56
2024/03/09 01:48:13;;;;;;;12.45;7.30;;;;;;;;;;5010014;28;20101;-55
2024/03/09 01:50:40;;;;;;;18.13;11.55;;;;;;;;;;5009629;28;20030;-56
2024/03/09 01:53:07;;;;;;;11.82;6.93;;;;;;;;;;5009139;28;20117;-53
2024/03/09 01:55:33;;;;;;;11.82;6.97;;;;;;;;;;5028476;28;20051;-57
2024/03/09 01:57:59;;;;;;;12.40;7.30;;;;;;;;;;5049089;28;20043;-57
2024/03/09 02:00:25;;;;;;;12.30;7.20;;;;;;;;;;5047585;28;20031;-58
2024/03/09 02:02:51;;;;;;;13.02;7.40;;;;;;;;;;5047559;28;20021;-57
2024/03/09 02:05:18;;;;;;;16.02;10.13;;;;;;;;;;5048932;28;20068;-57
2024/03/09 02:07:45;;;;;;;12.45;7.25;;;;;;;;;;5049032;28;20418;-62
2024/03/09 02:10:11;;;;;;;13.45;8.70;;;;;;;;;;5048783;28;20109;-58
2024/03/09 02:12:37;;;;;;;12.65;7.90;;;;;;;;;;5048195;28;20029;-55
2024/03/09 02:15:05;;;;;;;12.10;7.07;;;;;;;;;;5048802;28;20039;-58
2024/03/09 02:17:33;;;;;;;12.23;7.10;;;;;;;;;;5049092;28;20043;-58
2024/03/09 02:19:59;;;;;;;12.05;7.03;;;;;;;;;;5048590;28;20442;-57
2024/03/09 02:22:27;;;;;;;13.82;9.27;;;;;;;;;;5048105;28;20045;-58
2024/03/09 02:24:56;;;;;;;12.47;7.20;;;;;;;;;;5048967;28;20044;-59
2024/03/09 02:27:25;;;;;;;12.88;7.50;;;;;;;;;;5048856;28;20112;-59
2024/03/09 02:29:52;;;;;;;13.05;7.75;;;;;;;;;;5048528;28;20102;-55
2024/03/09 02:32:18;;;;;;;13.40;8.20;;;;;;;;;;5047996;28;20086;-57
2024/03/09 02:34:44;;;;;;;12.45;7.22;;;;;;;;;;5048919;28;20109;-56
2024/03/09 02:37:10;;;;;;;12.15;7.03;;;;;;;;;;5048661;28;20040;-56
2024/03/09 02:39:36;;;;;;;14.98;8.95;;;;;;;;;;5047987;28;20030;-56
2024/03/09 02:42:04;;;;;;;12.25;7.20;;;;;;;;;;5048467;28;20102;-58
2024/03/09 02:44:31;;;;;;;17.10;11.70;;;;;;;;;;5048538;28;20028;-57
2024/03/09 02:46:57;;;;;;;12.40;7.50;;;;;;;;;;5048996;28;20048;-57
2024/03/09 02:49:24;;;;;;;12.18;7.07;;;;;;;;;;5048461;28;20087;-57
2024/03/09 02:51:50;;;;;;;12.90;7.93;;;;;;;;;;5048320;28;20032;-57
2024/03/09 02:54:17;;;;;;;13.45;7.88;;;;;;;;;;5048138;28;20486;-55
2024/03/09 02:56:43;;;;;;;12.30;7.13;;;;;;;;;;5048478;28;20032;-56
2024/03/09 02:59:09;;;;;;;12.27;7.10;;;;;;;;;;5048362;28;20037;-57
2024/03/09 03:01:36;;;;;;;12.80;7.53;;;;;;;;;;5047302;28;20020;-56
2024/03/09 03:04:02;;;;;;;12.05;7.05;;;;;;;;;;5048184;28;20029;-56
2024/03/09 03:06:29;;;;;;;13.50;8.15;;;;;;;;;;5048506;28;20029;-54
2024/03/09 03:08:57;;;;;;;12.45;7.20;;;;;;;;;;5048302;28;20483;-58
2024/03/09 03:11:23;;;;;;;12.63;7.30;;;;;;;;;;5046858;28;20508;-59
2024/03/09 03:13:50;;;;;;;12.43;7.20;;;;;;;;;;5047897;28;20025;-54
2024/03/09 03:16:19;;;;;;;14.50;8.00;;;;;;;;;;5052086;28;20447;-57
2024/03/09 03:18:48;;;;;;;12.32;7.20;;;;;;;;;;5052118;28;20017;-57
2024/03/09 03:21:14;;;;;;;12.57;7.47;;;;;;;;;;5051976;28;20107;-55
2024/03/09 03:23:41;;;;;;;13.30;8.68;;;;;;;;;;5051463;28;20032;-56
2024/03/09 03:26:07;;;;;;;12.80;7.93;;;;;;;;;;5051871;28;20475;-54
2024/03/09 03:28:33;;;;;;;12.48;7.20;;;;;;;;;;5051998;28;20025;-58
2024/03/09 03:30:59;;;;;;;12.52;7.30;;;;;;;;;;5051777;28;20043;-57
2024/03/09 03:33:28;;;;;;;12.55;7.25;;;;;;;;;;5051263;28;20466;-54
2024/03/09 03:35:53;;;;;;;13.38;8.45;;;;;;;;;;5050639;28;20080;-57
2024/03/09 03:38:21;;;;;;;12.55;7.30;;;;;;;;;;5051751;28;20036;-59
2024/03/09 03:40:47;;;;;;;12.88;7.80;;;;;;;;;;5051496;28;20025;-57
2024/03/09 03:43:13;;;;;;;12.98;7.63;;;;;;;;;;5051032;28;20071;-57
2024/03/09 03:45:39;;;;;;;12.98;7.60;;;;;;;;;;5052127;28;20332;-59
2024/03/09 03:48:08;;;;;;;12.60;7.30;;;;;;;;;;5051979;28;20104;-56
2024/03/09 03:50:34;;;;;;;12.73;7.40;;;;;;;;;;5051565;28;20103;-58
2024/03/09 03:53:04;;;;;;;12.77;7.45;;;;;;;;;;5050888;28;20503;-56
2024/03/09 03:55:31;;;;;;;12.88;7.43;;;;;;;;;;5050185;28;20025;-55
2024/03/09 03:57:57;;;;;;;12.93;7.50;;;;;;;;;;5051437;28;20043;-59
2024/03/09 04:00:23;;;;;;;12.68;7.53;;;;;;;;;;5051205;28;20029;-59
2024/03/09 04:02:50;;;;;;;12.90;7.70;;;;;;;;;;5050741;28;20151;-59
2024/03/09 04:05:16;;;;;;;12.68;7.47;;;;;;;;;;5051286;28;20029;-58
2024/03/09 04:07:43;;;;;;;11.98;7.00;;;;;;;;;;5051383;28;20052;-57
2024/03/09 04:10:13;;;;;;;12.60;7.40;;;;;;;;;;5051307;28;20036;-59
2024/03/09 04:12:40;;;;;;;12.85;7.57;;;;;;;;;;5050744;28;20031;-56
2024/03/09 04:15:07;;;;;;;12.82;7.50;;;;;;;;;;5051407;28;20644;-56
2024/03/09 04:17:33;;;;;;;13.30;8.60;;;;;;;;;;5051408;28;20629;-58
2024/03/09 04:19:59;;;;;;;12.82;7.50;;;;;;;;;;5051256;28;20083;-54
2024/03/09 04:22:25;;;;;;;13.30;7.93;;;;;;;;;;5049217;28;20402;-55
2024/03/09 04:24:51;;;;;;;12.88;7.50;;;;;;;;;;5051073;28;20100;-57
2024/03/09 04:27:18;;;;;;;12.95;7.50;;;;;;;;;;5050178;28;20108;-57
2024/03/09 04:29:47;;;;;;;12.88;7.50;;;;;;;;;;5050696;28;20041;-56
2024/03/09 04:32:14;;;;;;;14.30;8.55;;;;;;;;;;5050070;28;20530;-58
2024/03/09 04:34:42;;;;;;;12.52;7.22;;;;;;;;;;5050935;28;20036;-56
2024/03/09 04:37:08;;;;;;;12.75;7.43;;;;;;;;;;5050738;28;20040;-60
2024/03/09 04:39:43;;;;;;;13.50;8.15;;;;;;;;;;5051036;28;20044;-60
2024/03/09 04:42:09;;;;;;;12.68;7.30;;;;;;;;;;5048805;28;20017;-55
2024/03/09 04:44:36;;;;;;;13.15;7.65;;;;;;;;;;5050335;28;20027;-57
2024/03/09 04:47:07;;;;;;;14.23;8.88;;;;;;;;;;5050758;28;20445;-57
2024/03/09 04:49:34;;;;;;;13.20;7.70;;;;;;;;;;5050866;28;20024;-55
2024/03/09 04:52:00;;;;;;;13.50;8.82;;;;;;;;;;5050258;28;20056;-56
2024/03/09 04:54:26;;;;;;;13.13;8.00;;;;;;;;;;5050249;28;20064;-54
2024/03/09 04:56:52;;;;;;;13.20;7.70;;;;;;;;;;5050725;28;20162;-58
2024/03/09 04:59:18;;;;;;;13.23;7.70;;;;;;;;;;5050452;28;20376;-57
2024/03/09 05:01:47;;;;;;;13.13;7.90;;;;;;;;;;5049902;28;20028;-56
2024/03/09 05:04:14;;;;;;;16.20;10.52;;;;;;;;;;5048467;28;20069;-56
2024/03/09 05:06:41;;;;;;;13.20;7.70;;;;;;;;;;5050164;28;20048;-55
2024/03/09 05:09:08;;;;;;;13.40;8.00;;;;;;;;;;5050062;28;20048;-56
2024/03/09 05:11:34;;;;;;;13.93;9.05;;;;;;;;;;5049758;28;20047;-59
2024/03/09 05:14:00;;;;;;;13.38;8.13;;;;;;;;;;5049637;28;20036;-57
2024/03/09 05:16:27;;;;;;;16.60;8.77;;;;;;;;;;5048756;28;20076;-59
2024/03/09 05:18:53;;;;;;;13.20;7.80;;;;;;;;;;5049829;28;20103;-58
2024/03/09 05:21:19;;;;;;;12.85;7.45;;;;;;;;;;5049721;28;20029;-57
2024/03/09 05:23:45;;;;;;;13.23;7.90;;;;;;;;;;5049516;28;20025;-56
2024/03/09 05:26:12;;;;;;;13.23;7.80;;;;;;;;;;5050057;28;20479;-56
2024/03/09 05:28:38;;;;;;;13.27;7.80;;;;;;;;;;5050112;28;20027;-57
2024/03/09 05:31:04;;;;;;;13.20;7.80;;;;;;;;;;5049728;28;20025;-56
2024/03/09 05:33:31;;;;;;;13.50;8.35;;;;;;;;;;5049226;28;20494;-58
2024/03/09 05:35:57;;;;;;;13.15;8.10;;;;;;;;;;5049744;28;20028;-58
2024/03/09 05:38:23;;;;;;;13.32;7.80;;;;;;;;;;5049710;28;20029;-57
2024/03/09 05:40:48;;;;;;;13.38;7.90;;;;;;;;;;5049535;28;20031;-59
2024/03/09 05:43:14;;;;;;;14.70;9.27;;;;;;;;;;5048972;28;20491;-59
2024/03/09 05:45:41;;;;;;;13.20;7.80;;;;;;;;;;5049519;28;20054;-58
2024/03/09 05:48:08;;;;;;;13.10;7.70;;;;;;;;;;5049457;28;20114;-57
2024/03/09 05:50:37;;;;;;;13.35;7.90;;;;;;;;;;5049305;28;20151;-57
2024/03/09 05:53:04;;;;;;;13.20;7.70;;;;;;;;;;5048757;28;20043;-56
2024/03/09 05:55:30;;;;;;;12.98;7.57;;;;;;;;;;5049317;28;20021;-55
2024/03/09 05:57:56;;;;;;;13.00;7.60;;;;;;;;;;5049323;28;20035;-56
2024/03/09 06:00:24;;;;;;;12.82;7.45;;;;;;;;;;5049061;28;20025;-58
2024/03/09 06:02:51;;;;;;;12.60;7.35;;;;;;;;;;5048682;28;20025;-58
2024/03/09 06:05:19;;;;;;;12.82;7.43;;;;;;;;;;5049258;28;20021;-57
2024/03/09 06:07:45;;;;;;;12.57;7.30;;;;;;;;;;5047771;28;20028;-58
2024/03/09 06:10:14;;;;;;;12.82;7.40;;;;;;;;;;5048906;28;20487;-56
2024/03/09 06:12:41;;;;;;;14.95;9.80;;;;;;;;;;5048390;28;20107;-55
2024/03/09 06:15:08;;;;;;;14.25;8.57;;;;;;;;;;5048902;28;20124;-55
2024/03/09 06:17:34;;;;;;;12.75;7.40;;;;;;;;;;5048932;28;20080;-57
2024/03/09 06:20:02;;;;;;;13.00;8.18;;;;;;;;;;5048659;28;20043;-55
2024/03/09 06:22:33;;;;;;;12.63;7.40;;;;;;;;;;5047911;28;20387;-60
2024/03/09 06:24:59;;;;;;;12.55;7.22;;;;;;;;;;5048988;28;20196;-54
2024/03/09 06:27:27;;;;;;;12.65;7.40;;;;;;;;;;5048872;28;20125;-58
2024/03/09 06:29:56;;;;;;;16.77;8.90;;;;;;;;;;5048614;28;20063;-57
2024/03/09 06:32:25;;;;;;;12.93;7.50;;;;;;;;;;5047953;28;20286;-53
2024/03/09 06:34:53;;;;;;;13.27;7.80;;;;;;;;;;5048725;28;20021;-58
2024/03/09 06:37:19;;;;;;;13.73;8.32;;;;;;;;;;5048721;28;20041;-58
2024/03/09 06:39:45;;;;;;;12.80;7.47;;;;;;;;;;5048473;28;20035;-58
2024/03/09 06:42:11;;;;;;;12.95;7.55;;;;;;;;;;5048082;28;20025;-57
2024/03/09 06:44:37;;;;;;;13.27;7.80;;;;;;;;;;5048778;28;20029;-57
2024/03/09 06:47:07;;;;;;;13.10;7.70;;;;;;;;;;5048989;28;20017;-58
2024/03/09 06:49:36;;;;;;;13.48;7.93;;;;;;;;;;5050094;28;20094;-56
2024/03/09 06:52:05;;;;;;;13.05;7.65;;;;;;;;;;5052436;28;20104;-58
2024/03/09 06:54:31;;;;;;;13.40;7.90;;;;;;;;;;5053152;28;20040;-58
2024/03/09 06:56:57;;;;;;;15.65;10.18;;;;;;;;;;5052690;28;20032;-58
2024/03/09 06:59:24;;;;;;;13.18;7.70;;;;;;;;;;5037018;28;20037;-53
2024/03/09 07:01:57;;;;;;;15.90;10.82;;;;;;;;;;5038152;28;20375;-57
2024/03/09 07:04:25;;;;;;;14.50;8.60;;;;;;;;;;5052080;28;20159;-58
2024/03/09 07:06:51;;;;;;;14.05;9.98;;;;;;;;;;5042622;28;20494;-58
2024/03/09 07:09:17;;;;;;;13.60;8.50;;;;;;;;;;5032377;28;20074;-58
2024/03/09 07:11:43;;;;;;;13.30;7.78;;;;;;;;;;5032303;28;20543;-58
2024/03/09 07:14:09;;;;;;;13.23;7.90;;;;;;;;;;5031945;28;20116;-59
2024/03/09 07:16:36;;;;;;;13.20;7.70;;;;;;;;;;5052070;28;20390;-56
2024/03/09 07:19:04;;;;;;;20.42;11.20;;;;;;;;;;5052037;28;20029;-57
2024/03/09 07:21:30;;;;;;;12.95;7.57;;;;;;;;;;5051971;28;20039;-55
2024/03/09 07:23:58;;;;;;;13.10;7.70;;;;;;;;;;5051404;28;20037;-55
2024/03/09 07:26:25;;;;;;;13.20;7.80;;;;;;;;;;5052131;28;20056;-56
2024/03/09 07:28:54;;;;;;;16.17;9.65;;;;;;;;;;5051767;28;20027;-56
2024/03/09 07:31:25;;;;;;;13.80;8.50;;;;;;;;;;5050301;28;20060;-58
2024/03/09 07:33:53;;;;;;;13.35;8.00;;;;;;;;;;5031560;28;20057;-58
2024/03/09 07:36:20;;;;;;;13.30;7.90;;;;;;;;;;5031944;28;20568;-57
2024/03/09 07:38:48;;;;;;;13.32;7.97;;;;;;;;;;5032097;28;20473;-56
2024/03/09 07:41:16;;;;;;;13.55;8.45;;;;;;;;;;5031827;28;20054;-56
2024/03/09 07:43:42;;;;;;;12.73;7.40;;;;;;;;;;5031279;28;20548;-56
2024/03/09 07:46:08;;;;;;;14.60;8.40;;;;;;;;;;5031640;28;20631;-54
2024/03/09 07:48:34;;;;;;;12.70;7.40;;;;;;;;;;5031871;28;20024;-56
2024/03/09 07:51:00;;;;;;;13.40;8.10;;;;;;;;;;5031732;28;20045;-53
2024/03/09 07:53:26;;;;;;;13.10;7.60;;;;;;;;;;5031352;28;20029;-54
2024/03/09 07:55:57;;;;;;;13.00;8.25;;;;;;;;;;5031631;28;20029;-55
2024/03/09 07:58:23;;;;;;;13.30;8.00;;;;;;;;;;5031600;28;20021;-58
2024/03/09 08:00:49;;;;;;;13.10;7.75;;;;;;;;;;5030090;28;20450;-56
2024/03/09 08:03:17;;;;;;;13.07;7.78;;;;;;;;;;5029393;28;20400;-60
2024/03/09 08:05:43;;;;;;;13.30;7.90;;;;;;;;;;5031267;28;20024;-55
2024/03/09 08:08:09;;;;;;;17.33;9.30;;;;;;;;;;5030090;28;20498;-57
2024/03/09 08:10:39;;;;;;;13.30;8.00;;;;;;;;;;5029930;28;20087;-58
2024/03/09 08:13:05;;;;;;;13.35;7.90;;;;;;;;;;5030613;28;20104;-57
2024/03/09 08:15:32;;;;;;;13.82;8.70;;;;;;;;;;5031169;28;20103;-57
2024/03/09 08:17:58;;;;;;;18.38;11.32;;;;;;;;;;5031159;28;20107;-55
2024/03/09 08:20:26;;;;;;;13.32;8.00;;;;;;;;;;5031100;28;20037;-54
2024/03/09 08:22:54;;;;;;;13.15;7.90;;;;;;;;;;5030477;28;20029;-58
2024/03/09 08:25:20;;;;;;;13.25;7.93;;;;;;;;;;5031134;28;20029;-56
2024/03/09 08:27:46;;;;;;;19.58;11.45;;;;;;;;;;5030726;28;20029;-58
2024/03/09 08:30:14;;;;;;;14.68;9.77;;;;;;;;;;5030710;28;20506;-57
2024/03/09 08:32:44;;;;;;;13.32;7.97;;;;;;;;;;5030327;28;20021;-57
2024/03/09 08:35:10;;;;;;;12.90;7.60;;;;;;;;;;5030871;28;20033;-60
2024/03/09 08:37:38;;;;;;;13.32;8.15;;;;;;;;;;5030861;28;20025;-57
2024/03/09 08:40:06;;;;;;;15.55;9.35;;;;;;;;;;5029344;28;20038;-59
2024/03/09 08:42:33;;;;;;;13.43;8.10;;;;;;;;;;5030228;28;20032;-58
2024/03/09 08:44:59;;;;;;;18.45;15.75;;;;;;;;;;5030649;28;20364;-59
2024/03/09 08:47:25;;;;;;;13.80;8.73;;;;;;;;;;5030470;28;20505;-58
2024/03/09 08:49:51;;;;;;;13.35;8.10;;;;;;;;;;5030334;28;20112;-55
2024/03/09 08:52:18;;;;;;;16.77;13.25;;;;;;;;;;5028607;28;20515;-58
2024/03/09 08:54:44;;;;;;;13.45;8.30;;;;;;;;;;5030404;28;20029;-55
2024/03/09 08:57:11;;;;;;;14.35;8.90;;;;;;;;;;5030276;28;20114;-57
2024/03/09 08:59:38;;;;;;;13.45;8.18;;;;;;;;;;5030048;28;20033;-58
2024/03/09 09:02:06;;;;;;;13.48;8.35;;;;;;;;;;5027478;28;20503;-54
2024/03/09 09:04:34;;;;;;;13.30;7.90;;;;;;;;;;5028481;28;20021;-56
2024/03/09 09:07:00;;;;;;;13.45;8.25;;;;;;;;;;5030161;28;20040;-55
2024/03/09 09:09:26;;;;;;;13.45;8.23;;;;;;;;;;5028331;28;20121;-57
2024/03/09 09:11:53;;;;;;;13.38;8.00;;;;;;;;;;5029254;28;20087;-56
2024/03/09 09:14:19;;;;;;;13.43;8.20;;;;;;;;;;5029726;28;20022;-57
2024/03/09 09:16:46;;;;;;;13.50;8.40;;;;;;;;;;5029996;28;20059;-56
2024/03/09 09:19:12;;;;;;;13.35;8.02;;;;;;;;;;5029836;28;20033;-58
2024/03/09 09:21:38;;;;;;;13.35;8.00;;;;;;;;;;5029756;28;20057;-55
2024/03/09 09:24:04;;;;;;;13.48;8.30;;;;;;;;;;5029848;28;20056;-57
2024/03/09 09:26:30;;;;;;;13.48;8.40;;;;;;;;;;5029880;28;20030;-53
2024/03/09 09:28:57;;;;;;;13.45;8.30;;;;;;;;;;5029644;28;20025;-54
2024/03/09 09:31:23;;;;;;;13.40;8.30;;;;;;;;;;5029227;28;20032;-55
2024/03/09 09:33:52;;;;;;;13.45;8.30;;;;;;;;;;5028947;28;20502;-56
2024/03/09 09:36:19;;;;;;;13.55;8.35;;;;;;;;;;5029531;28;20072;-56
2024/03/09 09:38:45;;;;;;;13.02;7.55;;;;;;;;;;5029523;28;20060;-55
2024/03/09 09:41:13;;;;;;;13.50;8.32;;;;;;;;;;5028942;28;20105;-53
2024/03/09 09:43:39;;;;;;;13.45;8.20;;;;;;;;;;5028692;28;20030;-56
2024/03/09 09:46:05;;;;;;;17.23;12.68;;;;;;;;;;5029337;28;20612;-51
2024/03/09 09:48:38;;;;;;;13.38;8.00;;;;;;;;;;5029295;28;20108;-56
2024/03/09 09:51:06;;;;;;;13.38;8.15;;;;;;;;;;5029084;28;20636;-57
2024/03/09 09:53:32;;;;;;;15.25;9.68;;;;;;;;;;5028479;28;20170;-52
2024/03/09 09:55:59;;;;;;;13.27;8.10;;;;;;;;;;5027683;28;20159;-53
2024/03/09 09:58:26;;;;;;;14.38;8.95;;;;;;;;;;5029139;28;20130;-54
2024/03/09 10:00:55;;;;;;;13.18;7.72;;;;;;;;;;5028830;28;20029;-55
2024/03/09 10:03:21;;;;;;;15.55;8.60;;;;;;;;;;5028454;28;20044;-55
2024/03/09 10:05:48;;;;;;;13.38;8.00;;;;;;;;;;5028942;28;20025;-51
2024/03/09 10:08:14;;;;;;;12.95;7.53;;;;;;;;;;5028806;28;20066;-55
2024/03/09 10:10:43;;;;;;;17.80;10.75;;;;;;;;;;5028623;28;20021;-55
2024/03/09 10:13:12;;;;;;;14.13;9.07;;;;;;;;;;5028249;28;20029;-52
2024/03/09 10:15:41;;;;;;;13.52;8.52;;;;;;;;;;5029245;28;20025;-54
2024/03/09 10:18:06;;;;;;;;;;;;;;;;;;5029711;28;20030;-56
2024/03/09 10:20:35;;;;;;;14.55;9.20;;;;;;;;;;5027748;28;19978;-57
2024/03/09 10:23:13;;;;;;;13.57;8.35;;;;;;;;;;5026495;28;20071;-58
2024/03/09 10:25:42;;;;;;;13.38;8.10;;;;;;;;;;5028390;28;20514;-52
2024/03/09 10:28:10;;;;;;;13.38;8.15;;;;;;;;;;5027878;28;20021;-55
2024/03/09 10:30:37;;;;;;;14.57;9.43;;;;;;;;;;5026962;28;20424;-55
2024/03/09 10:33:03;;;;;;;14.45;9.02;;;;;;;;;;5026354;28;20499;-52
2024/03/09 10:35:29;;;;;;;13.40;8.00;;;;;;;;;;5026856;28;20041;-57
2024/03/09 10:37:56;;;;;;;13.27;7.80;;;;;;;;;;5026708;28;20036;-56
2024/03/09 10:40:25;;;;;;;17.52;9.95;;;;;;;;;;5026504;28;20116;-58
2024/03/09 10:42:52;;;;;;;14.45;9.60;;;;;;;;;;5026672;28;20553;-57
2024/03/09 10:45:19;;;;;;;13.60;8.82;;;;;;;;;;5028688;28;20080;-54
2024/03/09 10:47:50;;;;;;;13.35;7.93;;;;;;;;;;5028507;28;20056;-54
2024/03/09 10:50:19;;;;;;;13.32;8.00;;;;;;;;;;5028199;28;20037;-54
2024/03/09 10:52:50;;;;;;;13.27;8.10;;;;;;;;;;5027689;28;20025;-56
2024/03/09 10:55:24;;;;;;;13.43;8.07;;;;;;;;;;5026867;28;20091;-58
2024/03/09 10:57:53;;;;;;;13.32;8.02;;;;;;;;;;5028351;28;20032;-52
2024/03/09 11:00:28;;;;;;;13.80;9.13;;;;;;;;;;5028155;28;20021;-56
2024/03/09 11:02:56;;;;;;;13.95;8.60;;;;;;;;;;5027531;28;20022;-53
2024/03/09 11:05:22;;;;;;;;;;;;;;;;;;5028860;28;20020;-54
2024/03/09 11:07:50;;;;;;;13.80;8.55;;;;;;;;;;5028435;28;19905;-57
2024/03/09 11:10:17;;;;;;;13.25;7.82;;;;;;;;;;5028320;28;20022;-54
2024/03/09 11:12:43;;;;;;;14.00;9.00;;;;;;;;;;5027909;28;20407;-54
2024/03/09 11:15:13;;;;;;;15.55;8.70;;;;;;;;;;5028425;28;20029;-55
2024/03/09 11:17:41;;;;;;;15.00;8.85;;;;;;;;;;5028470;28;20269;-57
2024/03/09 11:20:07;;;;;;;13.93;8.57;;;;;;;;;;5028395;28;20033;-52
2024/03/09 11:22:40;;;;;;;13.68;8.90;;;;;;;;;;5026254;28;20025;-58
2024/03/09 11:25:12;;;;;;;14.60;9.30;;;;;;;;;;5028051;28;20025;-55
2024/03/09 11:27:39;;;;;;;13.57;8.50;;;;;;;;;;5026876;28;20180;-52
2024/03/09 11:30:08;;;;;;;13.60;8.70;;;;;;;;;;5027017;28;20180;-53
2024/03/09 11:32:36;;;;;;;14.38;9.20;;;;;;;;;;5027578;28;20208;-57
2024/03/09 11:35:21;;;;;;;13.70;9.07;;;;;;;;;;5028161;28;20100;-53
2024/03/09 11:37:50;;;;;;;13.75;9.13;;;;;;;;;;5031835;28;20029;-54
2024/03/09 11:40:17;;;;;;;13.68;9.00;;;;;;;;;;5031874;28;20030;-55
2024/03/09 11:42:43;;;;;;;13.98;9.50;;;;;;;;;;5031394;28;20061;-54
2024/03/09 11:45:13;;;;;;;17.58;10.45;;;;;;;;;;5031852;28;20487;-55
2024/03/09 11:47:39;;;;;;;13.90;9.50;;;;;;;;;;5031601;28;20041;-55
2024/03/09 11:50:05;;;;;;;14.40;9.85;;;;;;;;;;5031168;28;20083;-56
2024/03/09 11:52:32;;;;;;;14.20;9.95;;;;;;;;;;5029879;28;20433;-52
2024/03/09 11:55:05;;;;;;;18.30;11.35;;;;;;;;;;5031284;28;20021;-59
2024/03/09 11:57:32;;;;;;;14.00;9.90;;;;;;;;;;5030174;28;20029;-52
2024/03/09 11:59:58;;;;;;;13.93;9.75;;;;;;;;;;5031925;28;20028;-57
2024/03/09 12:02:24;;;;;;;14.30;10.77;;;;;;;;;;5030743;28;20022;-58
2024/03/09 12:05:01;;;;;;;14.25;10.75;;;;;;;;;;5031955;28;20053;-56
2024/03/09 12:07:27;;;;;;;13.90;9.55;;;;;;;;;;5031770;28;20017;-52
2024/03/09 12:09:55;;;;;;;14.18;9.90;;;;;;;;;;5031918;28;20066;-58
2024/03/09 12:12:21;;;;;;;13.90;9.50;;;;;;;;;;5030629;28;20108;-56
2024/03/09 12:14:48;;;;;;;14.65;10.50;;;;;;;;;;5031094;28;20112;-52
2024/03/09 12:17:14;;;;;;;17.90;11.15;;;;;;;;;;5030990;28;20029;-56
2024/03/09 12:19:41;;;;;;;14.10;9.98;;;;;;;;;;5030710;28;20060;-54
2024/03/09 12:22:07;;;;;;;14.20;10.35;;;;;;;;;;5030555;28;20030;-54
2024/03/09 12:24:33;;;;;;;14.00;9.98;;;;;;;;;;5030719;28;20033;-55
2024/03/09 12:27:00;;;;;;;13.98;9.63;;;;;;;;;;5030846;28;21001;-54
2024/03/09 12:29:27;;;;;;;14.02;10.10;;;;;;;;;;5030490;28;20048;-55
2024/03/09 12:31:56;;;;;;;14.10;10.40;;;;;;;;;;5030570;28;20094;-56
2024/03/09 12:34:22;;;;;;;13.88;9.80;;;;;;;;;;5029089;28;20387;-56
2024/03/09 12:36:51;;;;;;;14.35;10.30;;;;;;;;;;5030495;28;20417;-52
2024/03/09 12:39:17;;;;;;;14.75;10.40;;;;;;;;;;5030674;28;20091;-56
2024/03/09 12:41:50;;;;;;;13.93;9.68;;;;;;;;;;5028558;28;20057;-54
2024/03/09 12:44:16;;;;;;;14.00;9.90;;;;;;;;;;5029815;28;20156;-54
2024/03/09 12:46:43;;;;;;;14.00;9.95;;;;;;;;;;5029805;28;20049;-56
2024/03/09 12:49:12;;;;;;;16.08;10.23;;;;;;;;;;5030379;28;20486;-53
2024/03/09 12:51:39;;;;;;;16.65;11.05;;;;;;;;;;5030488;28;20074;-55
2024/03/09 12:54:08;;;;;;;14.00;9.75;;;;;;;;;;5030270;28;20018;-55
2024/03/09 12:56:34;;;;;;;14.52;10.40;;;;;;;;;;5078190;22;20048;-57
2024/03/09 12:59:04;;;;;;;14.10;10.02;;;;;;;;;;5071704;28;20028;-52
2024/03/09 13:01:32;;;;;;;14.18;10.18;;;;;;;;;;5053534;28;20037;-55
2024/03/09 13:04:11;;;;;;;18.80;11.60;;;;;;;;;;5071037;28;20106;-53
2024/03/09 13:06:44;;;;;;;14.13;10.25;;;;;;;;;;5070974;28;20025;-54
2024/03/09 13:09:14;;;;;;;14.13;10.18;;;;;;;;;;5053389;28;20046;-55
2024/03/09 13:11:40;;;;;;;14.18;10.38;;;;;;;;;;5070834;28;20031;-53
2024/03/09 13:14:06;;;;;;;16.45;11.73;;;;;;;;;;5070595;28;20117;-53
2024/03/09 13:16:32;;;;;;;14.75;10.80;;;;;;;;;;5070760;28;20021;-56
2024/03/09 13:18:59;;;;;;;15.13;11.43;;;;;;;;;;5071260;28;20032;-51
2024/03/09 13:21:25;;;;;;;14.10;10.20;;;;;;;;;;5052968;28;20074;-50
2024/03/09 13:23:56;;;;;;;14.20;10.38;;;;;;;;;;5070228;28;20028;-55
2024/03/09 13:26:22;;;;;;;14.25;10.45;;;;;;;;;;5070713;28;20103;-51
2024/03/09 13:28:52;;;;;;;14.55;10.95;;;;;;;;;;5071234;28;20024;-51
2024/03/09 13:31:22;;;;;;;14.80;10.85;;;;;;;;;;5052714;28;20020;-54
2024/03/09 13:33:48;;;;;;;14.30;10.70;;;;;;;;;;5070622;28;20033;-51
2024/03/09 13:36:22;;;;;;;14.50;10.80;;;;;;;;;;5052758;28;20028;-53
2024/03/09 13:38:48;;;;;;;14.20;10.38;;;;;;;;;;5064299;28;20127;-51
2024/03/09 13:41:15;;;;;;;14.15;10.20;;;;;;;;;;5070742;28;20104;-56
2024/03/09 13:43:44;;;;;;;14.13;10.13;;;;;;;;;;5062924;28;20086;-52
2024/03/09 13:46:16;;;;;;;14.30;10.60;;;;;;;;;;5070759;28;20432;-55
2024/03/09 13:48:43;;;;;;;14.52;11.23;;;;;;;;;;5070779;28;20071;-51
2024/03/09 13:51:12;;;;;;;14.13;10.18;;;;;;;;;;5070440;28;20112;-56
2024/03/09 13:53:42;;;;;;;16.05;11.43;;;;;;;;;;5070412;28;20024;-56
2024/03/09 13:56:13;;;;;;;15.52;11.77;;;;;;;;;;5070640;28;20355;-56
2024/03/09 13:58:39;;;;;;;14.32;10.90;;;;;;;;;;5071025;28;20054;-56
2024/03/09 14:01:09;;;;;;;14.50;10.70;;;;;;;;;;5070781;28;20033;-50
2024/03/09 14:03:35;;;;;;;17.08;11.20;;;;;;;;;;5070359;28;20032;-51
2024/03/09 14:06:05;;;;;;;14.15;10.45;;;;;;;;;;5070754;28;20024;-50
2024/03/09 14:08:31;;;;;;;16.27;11.30;;;;;;;;;;5070690;28;20031;-52
2024/03/09 14:10:57;;;;;;;14.30;10.70;;;;;;;;;;5070482;28;20113;-54
2024/03/09 14:13:23;;;;;;;14.27;10.55;;;;;;;;;;5069771;28;20515;-52
2024/03/09 14:15:49;;;;;;;14.30;10.75;;;;;;;;;;5070586;28;20024;-54
2024/03/09 14:18:16;;;;;;;14.32;10.80;;;;;;;;;;5068983;28;20052;-54
2024/03/09 14:20:42;;;;;;;15.68;12.18;;;;;;;;;;5062326;28;20023;-55
2024/03/09 14:23:09;;;;;;;14.25;10.52;;;;;;;;;;5071023;28;20025;-52
2024/03/09 14:25:35;;;;;;;15.13;11.73;;;;;;;;;;5075242;28;20021;-54
2024/03/09 14:28:06;;;;;;;15.70;11.18;;;;;;;;;;5075090;28;20360;-56